Archival Weather

Norman Y Mineta San Jose Intl

San Jose, California (KSJC)

Report from: Sunday, February 11, 2024 9:53 PM PST
Current time: Monday, June 24, 2024 4:27 AM PDT

Current weather – Weather history – Daily summaries
Weather forecast

Temperature10.0°C (50.0°F)
Wind chill9.1°C (48.5°F)
Dew point5.6°C (42.1°F)
Winds 4 kts (2.1 m/s, 4.6 mph) South (190°)
Visibility10 mi. (16.1 km)
Clouds Sky clear
Altimeter30.22 in.Hg (1023 mB)
Relative humidity74 %
Density altitude-805 ft. (-245 m)
Sea-level pressure102.3 kPa (1023 mB, 30.22 in.Hg)
Max temp last 6 hours16.7°C (62.1°F)
Min temp last 6 hours10.0°C (50.0°F)
Remarks Automated weather observing station with precipitation discriminator
Pressure rising more quickly
Flight conditions Visual Meteorological Conditions
Raw dataKSJC 120553Z 19004KT 10SM CLR 10/06 A3022 RMK AO2 SLP233 T01000056 10167 20100 53008
An error has occurred. This application may no longer respond until reloaded. Reload 🗙